Time;durP1;ratioP1;P1;durP2;ratioP2;P2;SDS_P1;SDS_P2;PMS_P1;PMS_P2;Temp;Humidity;BMP_temperature;BMP_pressure;BME280_temperature;BME280_humidity;BME280_pressure;Samples;Min_cycle;Max_cycle;Signal;HPM_P1;HPM_P2
2023/11/08 00:04:52;;;;;;;6.08;5.03;;;;;;;8.91;100.00;100180.16;5218184;55;1138764;-78
2023/11/08 00:09:58;;;;;;;9.47;5.10;;;;;;;8.93;100.00;100176.09;5217370;55;1138872;-77
2023/11/08 00:15:08;;;;;;;9.87;4.57;;;;;;;8.91;100.00;100182.80;5151278;56;1139100;-71
2023/11/08 00:20:12;;;;;;;8.53;4.63;;;;;;;8.91;100.00;100182.80;5131578;56;1138955;-76
2023/11/08 00:25:18;;;;;;;9.10;4.73;;;;;;;8.91;100.00;100180.16;5131364;56;1138867;-83
2023/11/08 00:30:24;;;;;;;7.40;4.33;;;;;;;8.92;100.00;100181.84;5152109;56;1138738;-79
2023/11/08 00:35:30;;;;;;;10.23;4.30;;;;;;;8.93;100.00;100184.00;5132075;56;1138792;-78
2023/11/08 00:40:35;;;;;;;11.50;5.28;;;;;;;8.94;100.00;100187.84;5133756;55;1141009;-75
2023/11/08 00:45:41;;;;;;;9.23;4.80;;;;;;;8.93;100.00;100193.23;5124089;56;1140995;-78
2023/11/08 00:50:47;;;;;;;7.10;4.40;;;;;;;8.91;100.00;100180.16;5115884;56;1138702;-75
2023/11/08 00:55:52;;;;;;;8.53;3.98;;;;;;;8.92;100.00;100175.73;5114889;56;1138777;-77
2023/11/08 01:00:58;;;;;;;8.70;4.15;;;;;;;8.88;100.00;100169.84;5114081;56;1138941;-80
2023/11/08 01:06:04;;;;;;;8.43;4.03;;;;;;;8.87;100.00;100170.80;5134793;56;1139060;-72
2023/11/08 01:11:10;;;;;;;5.22;3.50;;;;;;;8.86;100.00;100170.43;5119267;56;1138832;-77
2023/11/08 01:16:16;;;;;;;5.70;3.37;;;;;;;8.82;100.00;100172.95;5118575;56;1138724;-73
2023/11/08 01:21:22;;;;;;;8.33;3.83;;;;;;;8.79;100.00;100174.02;5147610;56;1138880;-75
2023/11/08 01:26:27;;;;;;;4.77;3.37;;;;;;;8.77;100.00;100194.39;5127825;56;1138728;-69
2023/11/08 01:31:33;;;;;;;11.47;3.97;;;;;;;8.75;100.00;100187.55;5065029;56;1138877;-77
2023/11/08 01:36:39;;;;;;;5.13;3.33;;;;;;;8.73;100.00;100187.66;5079884;56;1141171;-77
2023/11/08 01:41:51;;;;;;;10.55;3.33;;;;;;;8.72;100.00;100187.30;5096218;55;1138949;-74
2023/11/08 01:46:59;;;;;;;7.13;4.47;;;;;;;8.73;100.00;100182.39;5108997;55;1140839;-73
2023/11/08 01:52:06;;;;;;;6.70;3.22;;;;;;;8.72;100.00;100185.97;5030628;57;1138971;-77
2023/11/08 01:57:12;;;;;;;4.83;3.40;;;;;;;8.72;100.00;100186.45;5049674;57;1138737;-76
2023/11/08 02:02:19;;;;;;;5.50;3.20;;;;;;;8.69;100.00;100186.23;5030492;57;1138910;-78
2023/11/08 02:07:24;;;;;;;8.07;2.70;;;;;;;8.67;100.00;100184.19;5097794;56;1138938;-75
2023/11/08 02:12:32;;;;;;;3.53;2.73;;;;;;;8.67;100.00;100184.66;5138559;56;1138712;-81
2023/11/08 02:17:40;;;;;;;4.07;2.73;;;;;;;8.64;100.00;100185.72;5100162;55;1139058;-75
2023/11/08 02:22:46;;;;;;;4.60;2.72;;;;;;;8.63;100.00;100193.75;5093408;55;1139014;-77
2023/11/08 02:27:55;;;;;;;5.15;2.95;;;;;;;8.63;100.00;100185.84;5043797;56;1138896;-78
2023/11/08 02:33:00;;;;;;;2.93;2.33;;;;;;;8.64;100.00;100194.11;5145816;54;1139110;-74
2023/11/08 02:38:06;;;;;;;6.70;3.17;;;;;;;8.61;100.00;100192.54;5265196;54;1138623;-72
2023/11/08 02:43:12;;;;;;;2.90;1.90;;;;;;;8.62;100.00;100195.55;5309284;54;1138706;-77
2023/11/08 02:48:18;;;;;;;3.97;2.53;;;;;;;8.64;100.00;100200.70;5217450;54;1138757;-83
2023/11/08 02:53:24;;;;;;;6.87;2.60;;;;;;;8.63;100.00;100198.54;5126788;56;1139082;-74
2023/11/08 02:58:30;;;;;;;6.40;2.20;;;;;;;8.63;100.00;100201.66;5150978;55;1138805;-77
2023/11/08 03:03:35;;;;;;;9.60;2.67;;;;;;;8.60;100.00;100200.08;5148307;55;1138977;-75
2023/11/08 03:08:41;;;;;;;2.73;2.00;;;;;;;8.59;100.00;100201.51;5128227;56;1138888;-74
2023/11/08 03:13:47;;;;;;;3.30;2.10;;;;;;;8.58;100.00;100209.89;5127931;56;1139238;-74
2023/11/08 03:18:52;;;;;;;3.25;1.90;;;;;;;8.58;100.00;100206.42;5127731;55;1138883;-76
2023/11/08 03:24:00;;;;;;;2.43;2.10;;;;;;;8.57;100.00;100200.78;5147114;56;1138729;-79
2023/11/08 03:29:06;;;;;;;3.20;1.77;;;;;;;8.54;100.00;100208.46;5127693;55;1138856;-81
2023/11/08 03:34:12;;;;;;;4.47;2.10;;;;;;;8.53;100.00;100204.62;5127588;56;1138865;-75
2023/11/08 03:39:19;;;;;;;5.03;1.93;;;;;;;8.53;100.00;100208.58;5213081;55;1138929;-77
2023/11/08 03:44:24;;;;;;;2.80;1.87;;;;;;;8.50;100.00;100211.43;5214856;55;1138784;-79
2023/11/08 03:49:34;;;;;;;1.83;1.50;;;;;;;8.50;100.00;100212.27;5168033;55;1139079;-77
2023/11/08 03:54:37;;;;;;;6.93;1.80;;;;;;;8.53;100.00;100216.48;5147920;56;1139222;-76
2023/11/08 03:59:42;;;;;;;2.00;1.80;;;;;;;8.51;100.00;100214.44;5181960;55;1138755;-81
2023/11/08 04:04:49;;;;;;;4.83;1.83;;;;;;;8.48;100.00;100209.38;5183500;56;1138857;-74
2023/11/08 04:09:55;;;;;;;2.30;1.50;;;;;;;8.45;100.00;100210.44;5183941;55;1138862;-74
2023/11/08 04:15:01;;;;;;;1.87;1.67;;;;;;;8.42;100.00;100213.30;5203817;55;1138756;-77
2023/11/08 04:20:10;;;;;;;1.53;1.40;;;;;;;8.42;100.00;100226.47;5183428;55;1138854;-80
2023/11/08 04:25:15;;;;;;;4.33;2.03;;;;;;;8.42;100.00;100223.84;5187520;55;1138811;-75
2023/11/08 04:30:21;;;;;;;3.03;1.70;;;;;;;8.42;100.00;100218.09;5200237;55;1138741;-81
2023/11/08 04:35:26;;;;;;;2.62;1.47;;;;;;;8.40;100.00;100217.36;5159014;55;1138738;-70
2023/11/08 04:40:32;;;;;;;3.63;1.50;;;;;;;8.38;100.00;100222.41;5214414;55;1138910;-75
2023/11/08 04:45:38;;;;;;;3.70;1.80;;;;;;;8.37;100.00;100223.36;5234953;55;1138788;-74
2023/11/08 04:50:43;;;;;;;3.57;1.73;;;;;;;8.30;100.00;100228.19;5228011;55;1138781;-83
2023/11/08 04:55:49;;;;;;;1.57;1.22;;;;;;;8.28;100.00;100230.08;5248234;55;1138686;-68
2023/11/08 05:00:54;;;;;;;5.33;1.22;;;;;;;8.25;100.00;100232.94;5273986;55;1138981;-72
2023/11/08 05:06:00;;;;;;;1.43;1.30;;;;;;;8.22;100.00;100237.14;5277130;54;1138897;-77
2023/11/08 05:11:05;;;;;;;3.67;1.50;;;;;;;8.19;100.00;100232.08;5277722;54;1138915;-72
2023/11/08 05:16:12;;;;;;;2.20;1.33;;;;;;;8.20;100.00;100231.61;5278475;54;1138844;-81
2023/11/08 05:21:18;;;;;;;3.55;1.65;;;;;;;8.16;100.00;100237.56;5297849;54;1138612;-73
2023/11/08 05:26:23;;;;;;;1.90;1.37;;;;;;;8.15;100.00;100227.98;5230913;54;1139032;-75
2023/11/08 05:31:33;;;;;;;1.70;1.60;;;;;;;8.13;100.00;100232.03;5190698;55;1139098;-75
2023/11/08 05:36:36;;;;;;;1.80;1.70;;;;;;;8.10;100.00;100236.20;5235738;54;1138495;-77
2023/11/08 05:41:42;;;;;;;1.20;1.20;;;;;;;8.08;100.00;100230.23;5278260;54;1138877;-76
2023/11/08 05:46:48;;;;;;;2.40;2.20;;;;;;;8.07;100.00;100243.03;5212594;54;1138601;-72
2023/11/08 06:07:28;;;;;;;2.73;1.80;;;;;;;8.04;100.00;100255.57;5171527;56;47125;-75
2023/11/08 06:12:34;;;;;;;3.90;2.17;;;;;;;7.93;100.00;100256.81;5006522;56;1134674;-77
2023/11/08 06:17:39;;;;;;;3.53;1.90;;;;;;;7.93;100.00;100262.08;4942414;57;1138828;-76
2023/11/08 06:22:45;;;;;;;2.63;1.80;;;;;;;7.93;100.00;100263.40;4939535;57;1138956;-73
2023/11/08 06:27:50;;;;;;;4.77;2.33;;;;;;;7.97;100.00;100275.38;4978383;56;1138825;-75
2023/11/08 06:32:58;;;;;;;3.20;2.90;;;;;;;7.97;100.00;100275.38;4979238;57;1139001;-76
2023/11/08 06:38:03;;;;;;;1.50;1.40;;;;;;;7.96;100.00;100276.32;5002366;57;1138783;-69
2023/11/08 06:43:10;;;;;;;5.45;2.00;;;;;;;7.96;100.00;100284.22;5110609;56;1138773;-73
2023/11/08 06:48:16;;;;;;;1.57;1.47;;;;;;;7.93;100.00;100276.09;4935770;56;1138911;-71
2023/11/08 06:53:22;;;;;;;1.85;1.60;;;;;;;7.97;100.00;100281.95;5041013;56;1138922;-73
2023/11/08 06:58:30;;;;;;;1.42;1.30;;;;;;;7.97;100.00;100288.07;4933899;57;1139197;-76
2023/11/08 07:03:35;;;;;;;2.73;1.73;;;;;;;8.00;100.00;100288.33;5096636;55;1138912;-71
2023/11/08 07:08:41;;;;;;;3.97;1.50;;;;;;;8.00;100.00;100285.70;5114940;56;1138817;-71
2023/11/08 07:13:46;;;;;;;5.47;1.90;;;;;;;8.02;100.00;100292.55;5068951;56;1139039;-78
2023/11/08 07:18:53;;;;;;;3.03;1.47;;;;;;;8.08;100.00;100288.17;5109066;56;1138804;-76
2023/11/08 07:23:59;;;;;;;1.80;1.60;;;;;;;8.11;100.00;100292.36;5109171;56;1138886;-76
2023/11/08 07:29:07;;;;;;;1.57;1.20;;;;;;;8.14;100.00;100288.20;5112450;56;1138988;-81
2023/11/08 07:34:12;;;;;;;4.53;1.57;;;;;;;8.15;100.00;100285.93;5108369;56;1138881;-72
2023/11/08 07:39:18;;;;;;;6.43;1.90;;;;;;;8.23;100.00;100301.20;5108709;55;1138923;-74
2023/11/08 07:44:24;;;;;;;1.35;1.30;;;;;;;8.25;100.00;100306.70;5059289;57;1139214;-76
2023/11/08 07:49:30;;;;;;;2.27;1.60;;;;;;;8.29;100.00;100302.91;5043844;56;1138832;-76
2023/11/08 07:54:36;;;;;;;1.37;1.20;;;;;;;8.32;100.00;100301.89;4985968;57;1138948;-83
2023/11/08 07:59:42;;;;;;;4.63;1.83;;;;;;;8.32;100.00;100301.41;5165916;55;1138840;-78
2023/11/08 08:04:48;;;;;;;3.17;1.90;;;;;;;8.31;100.00;100299.69;5123197;55;1138999;-70
2023/11/08 08:09:54;;;;;;;4.43;2.43;;;;;;;8.32;100.00;100301.89;5098053;55;1138927;-83
2023/11/08 08:15:00;;;;;;;2.63;2.07;;;;;;;8.45;100.00;100299.57;5078627;56;1138810;-80
2023/11/08 08:20:06;;;;;;;3.83;2.20;;;;;;;8.66;100.00;100313.00;5143196;56;1138822;-79
2023/11/08 08:25:13;;;;;;;5.90;1.60;;;;;;;8.89;100.00;100313.09;5080594;56;1138882;-73
2023/11/08 08:30:20;;;;;;;4.53;2.10;;;;;;;8.90;100.00;100311.66;5058173;56;1138973;-73
2023/11/08 08:35:26;;;;;;;2.25;2.00;;;;;;;8.84;100.00;100312.61;5097932;56;1138819;-71
2023/11/08 08:40:31;;;;;;;3.97;1.60;;;;;;;8.86;100.00;100310.20;5078363;56;1138750;-76
2023/11/08 08:45:37;;;;;;;2.00;1.40;;;;;;;8.88;100.00;100314.04;5078975;56;1138902;-78
2023/11/08 08:50:43;;;;;;;6.53;2.07;;;;;;;8.84;100.00;100312.13;5099263;56;1138844;-81
2023/11/08 08:55:48;;;;;;;3.00;1.50;;;;;;;8.83;100.00;100320.16;5009471;56;1138914;-83
2023/11/08 09:00:54;;;;;;;2.30;1.30;;;;;;;8.89;100.00;100314.41;5106718;55;1138974;-77
2023/11/08 09:06:00;;;;;;;4.33;1.90;;;;;;;8.94;100.00;100318.87;5103539;56;1138871;-81
2023/11/08 09:11:06;;;;;;;2.23;1.80;;;;;;;8.99;100.00;100324.66;5098678;56;1138759;-75
2023/11/08 09:16:14;;;;;;;3.80;1.62;;;;;;;9.02;100.00;100308.59;5098763;55;1139264;-74
2023/11/08 09:21:23;;;;;;;2.08;1.12;;;;;;;9.07;100.00;100313.89;5103116;55;1138822;-76
2023/11/08 09:26:28;;;;;;;4.90;1.82;;;;;;;9.18;100.00;100323.16;5137329;56;1138805;-76
2023/11/08 09:31:35;;;;;;;3.67;1.07;;;;;;;9.24;100.00;100328.47;5021607;57;1138813;-78
2023/11/08 09:36:44;;;;;;;2.87;1.50;;;;;;;9.30;100.00;100322.73;5125383;55;1138807;-77
2023/11/08 09:41:48;;;;;;;6.43;1.43;;;;;;;9.29;100.00;100315.78;5146142;55;1138862;-76
2023/11/08 09:46:57;;;;;;;2.33;1.20;;;;;;;9.30;100.00;100322.73;5095612;56;1138981;-78
2023/11/08 09:52:03;;;;;;;3.37;1.23;;;;;;;9.34;100.00;100318.89;5143696;55;1138636;-77
2023/11/08 09:57:10;;;;;;;4.17;1.62;;;;;;;9.33;100.00;100316.36;5079341;56;1138703;-77
2023/11/08 10:02:18;;;;;;;5.80;1.37;;;;;;;9.34;100.00;100320.69;5101052;56;1139136;-71
2023/11/08 10:07:24;;;;;;;3.83;1.55;;;;;;;9.34;100.00;100316.25;5052301;56;1138858;-75
2023/11/08 10:12:32;;;;;;;3.87;1.43;;;;;;;9.38;100.00;100307.63;5090401;56;1138821;-74
2023/11/08 10:17:38;;;;;;;6.03;1.93;;;;;;;9.45;100.00;100310.18;5062162;57;1138574;-77
2023/11/08 10:22:48;;;;;;;5.83;1.53;;;;;;;9.48;100.00;100296.72;4959255;58;1139186;-78
2023/11/08 10:28:10;;;;;;;3.80;1.43;;;;;;;9.52;100.00;100299.50;5036117;56;1138612;-78
2023/11/08 10:33:16;;;;;;;2.58;2.20;;;;;;;9.52;100.00;100288.45;5108899;56;1138812;-79
2023/11/08 10:38:22;;;;;;;3.50;1.63;;;;;;;9.58;100.00;100292.91;5013336;56;1138929;-73
2023/11/08 10:43:27;;;;;;;2.73;2.00;;;;;;;9.58;100.00;100279.71;5035094;57;1138659;-76
2023/11/08 10:48:35;;;;;;;7.63;2.97;;;;;;;9.57;100.00;100293.88;5068705;56;1138995;-76
2023/11/08 10:53:41;;;;;;;15.77;3.67;;;;;;;9.57;100.00;100299.99;5051702;56;1138763;-76
2023/11/08 10:58:49;;;;;;;21.33;9.40;;;;;;;9.50;100.00;100304.05;5067252;55;1140648;-72
2023/11/08 11:03:59;;;;;;;32.37;17.87;;;;;;;9.49;100.00;100283.41;5150708;55;1141194;-75
2023/11/08 11:09:10;;;;;;;25.17;11.23;;;;;;;9.54;100.00;100280.42;5124379;55;1143113;-74
2023/11/08 11:14:38;;;;;;;3.30;2.57;;;;;;;9.58;100.00;100286.31;5134692;56;1148680;-75
2023/11/08 11:19:47;;;;;;;13.30;3.10;;;;;;;9.55;100.00;100291.34;5109942;55;1138839;-79
2023/11/08 11:24:53;;;;;;;9.17;4.87;;;;;;;9.55;100.00;100287.38;5109339;55;1140876;-81
2023/11/08 11:30:26;;;;;;;12.90;4.67;;;;;;;9.57;100.00;100290.75;5120894;55;1138662;-78
2023/11/08 11:35:42;;;;;;;113.46;25.48;;;;;;;9.57;100.00;100289.44;5138986;55;1141012;-73
2023/11/08 11:40:48;;;;;;;353.87;78.30;;;;;;;9.62;100.00;100284.65;5120198;55;1144822;-77
2023/11/08 11:45:55;;;;;;;69.23;14.33;;;;;;;9.69;100.00;100292.44;5152773;55;1145198;-74
2023/11/08 11:51:01;;;;;;;27.33;6.30;;;;;;;9.69;100.00;100284.52;5082767;56;1143169;-74
2023/11/08 11:56:08;;;;;;;24.03;8.13;;;;;;;9.68;100.00;100291.23;5134264;55;1141059;-77
2023/11/08 12:01:19;;;;;;;113.13;28.27;;;;;;;9.67;100.00;100289.55;5107525;56;1197260;-74
2023/11/08 12:06:22;;;;;;;19.92;5.37;;;;;;;9.62;100.00;100295.21;5150600;55;1145190;-75
2023/11/08 12:11:27;;;;;;;24.32;6.50;;;;;;;9.60;100.00;100305.52;5196656;55;1140892;-76
2023/11/08 12:16:33;;;;;;;23.12;8.13;;;;;;;9.55;100.00;100299.75;5115524;55;1141034;-77
2023/11/08 12:21:39;;;;;;;19.53;5.97;;;;;;;9.43;100.00;100308.13;5118842;56;1140870;-81
2023/11/08 12:26:45;;;;;;;17.83;5.83;;;;;;;9.43;100.00;100308.13;5141018;55;1140857;-78
2023/11/08 12:31:52;;;;;;;18.30;6.60;;;;;;;9.43;100.00;100318.21;5109053;56;1140650;-76
2023/11/08 12:36:57;;;;;;;3.33;1.40;;;;;;;9.40;100.00;100312.31;5112055;55;1141196;-76
2023/11/08 12:42:03;;;;;;;11.65;3.05;;;;;;;9.34;100.00;100309.65;5042445;57;1138666;-74
2023/11/08 12:47:10;;;;;;;6.90;2.33;;;;;;;9.39;100.00;100310.63;5007855;57;1140772;-77
2023/11/08 12:52:20;;;;;;;6.92;2.05;;;;;;;9.41;100.00;100305.60;5036232;57;1138889;-76
2023/11/08 12:57:27;;;;;;;76.12;25.27;;;;;;;9.39;100.00;100316.75;5122871;55;1138912;-78
2023/11/08 13:02:35;;;;;;;4.62;2.72;;;;;;;9.37;100.00;100316.02;5197190;55;1143046;-77
2023/11/08 13:07:40;;;;;;;7.43;2.57;;;;;;;9.35;100.00;100319.25;5133929;55;1138677;-81
2023/11/08 13:12:45;;;;;;;5.87;2.03;;;;;;;9.35;100.00;100323.21;5194800;55;1138873;-70
2023/11/08 13:17:51;;;;;;;4.20;1.40;;;;;;;9.36;100.00;100319.62;5180789;55;1138903;-76
2023/11/08 13:22:57;;;;;;;4.33;2.00;;;;;;;9.36;100.00;100314.81;5118052;55;1138521;-77
2023/11/08 13:28:02;;;;;;;8.60;3.80;;;;;;;9.38;100.00;100315.55;5112104;55;1138777;-76
2023/11/08 13:33:09;;;;;;;42.53;17.40;;;;;;;9.41;100.00;100320.12;5107857;55;1138904;-71
2023/11/08 13:38:17;;;;;;;18.53;6.33;;;;;;;9.39;100.00;100310.16;5127401;55;1142919;-75
2023/11/08 13:43:22;;;;;;;14.25;5.65;;;;;;;9.40;100.00;100320.23;5108128;56;1140870;-71
2023/11/08 13:48:33;;;;;;;10.83;4.70;;;;;;;9.38;100.00;100311.11;5115576;55;1140801;-69
2023/11/08 13:53:37;;;;;;;12.97;3.97;;;;;;;9.40;100.00;100314.48;5062316;57;1140838;-71
2023/11/08 13:58:46;;;;;;;14.40;7.17;;;;;;;9.38;100.00;100316.39;5024098;57;1140777;-79
2023/11/08 14:03:49;;;;;;;4.07;2.30;;;;;;;9.39;100.00;100313.27;5027389;56;1140793;-73
2023/11/08 14:08:56;;;;;;;1.50;1.40;;;;;;;9.38;100.00;100310.27;5134971;55;1139147;-74
2023/11/08 14:14:02;;;;;;;4.50;1.87;;;;;;;9.38;100.00;100317.70;5082496;56;1139189;-80
2023/11/08 14:19:08;;;;;;;15.40;5.97;;;;;;;9.40;100.00;100317.59;5194257;55;1138639;-77
2023/11/08 14:24:15;;;;;;;10.43;4.63;;;;;;;9.44;100.00;100315.09;5211152;55;1140880;-75
2023/11/08 14:29:21;;;;;;;4.03;2.30;;;;;;;9.48;100.00;100317.84;5157658;55;1140960;-76
2023/11/08 14:34:27;;;;;;;8.78;3.15;;;;;;;9.50;100.00;100318.56;5184936;55;1138900;-76
2023/11/08 14:39:33;;;;;;;30.80;13.15;;;;;;;9.48;100.00;100315.20;5213991;55;1138836;-77
2023/11/08 14:44:40;;;;;;;9.27;3.63;;;;;;;9.49;100.00;100313.77;5192861;55;1143150;-76
2023/11/08 14:49:46;;;;;;;33.50;16.67;;;;;;;9.46;100.00;100314.50;5118627;55;1139040;-77
2023/11/08 14:54:52;;;;;;;4.53;2.40;;;;;;;9.44;100.00;100315.09;5171228;54;1143028;-77
2023/11/08 14:59:58;;;;;;;4.50;2.50;;;;;;;9.40;100.00;100317.12;5182959;54;1138869;-72
2023/11/08 15:05:04;;;;;;;3.30;2.20;;;;;;;9.34;100.00;100314.92;5145576;55;1139282;-82
2023/11/08 15:10:10;;;;;;;98.27;43.50;;;;;;;9.33;100.00;100319.84;5127774;55;1138790;-75
2023/11/08 15:15:16;;;;;;;41.80;20.30;;;;;;;9.31;100.00;100324.91;5128064;56;1143006;-77
2023/11/08 15:20:22;;;;;;;24.43;10.53;;;;;;;9.25;100.00;100327.52;5108452;56;1142965;-77
2023/11/08 15:25:27;;;;;;;4.20;2.77;;;;;;;9.19;100.00;100320.05;5108556;56;1142924;-73
2023/11/08 15:30:33;;;;;;;7.90;4.75;;;;;;;9.10;100.00;100318.11;5131615;55;1138938;-75
2023/11/08 15:35:40;;;;;;;8.70;3.70;;;;;;;9.05;100.00;100319.76;5136560;55;1138994;-82
2023/11/08 15:40:46;;;;;;;7.83;3.63;;;;;;;9.01;100.00;100330.16;5194426;55;1138827;-77
2023/11/08 15:45:53;;;;;;;9.87;3.57;;;;;;;8.97;100.00;100327.89;5133802;55;1138859;-79
2023/11/08 15:50:59;;;;;;;9.50;3.77;;;;;;;8.95;100.00;100327.16;5111975;55;1138793;-73
2023/11/08 15:56:05;;;;;;;8.10;3.33;;;;;;;8.92;100.00;100326.06;5122739;55;1139141;-82
2023/11/08 16:01:10;;;;;;;7.53;2.80;;;;;;;8.87;100.00;100326.86;5146581;55;1139120;-75
2023/11/08 16:06:22;;;;;;;6.62;2.95;;;;;;;8.79;100.00;100324.33;5030494;57;1138975;-73
2023/11/08 16:11:27;;;;;;;3.70;2.23;;;;;;;8.73;100.00;100338.42;5127188;56;1141651;-68
2023/11/08 16:16:33;;;;;;;6.80;3.15;;;;;;;8.69;100.00;100330.39;5056875;57;1138930;-70
2023/11/08 16:21:39;;;;;;;7.27;4.23;;;;;;;8.67;100.00;100344.16;5187046;55;1138972;-77
2023/11/08 16:26:47;;;;;;;11.13;3.30;;;;;;;8.64;100.00;100347.85;5163098;55;1138913;-78
2023/11/08 16:31:52;;;;;;;14.03;7.17;;;;;;;8.66;100.00;100352.55;5128735;56;1140920;-74
2023/11/08 16:36:58;;;;;;;6.47;2.80;;;;;;;8.67;100.00;100352.07;5108622;56;1140917;-74
2023/11/08 16:42:04;;;;;;;5.20;2.77;;;;;;;8.70;100.00;100357.97;5123295;55;1138866;-68
2023/11/08 16:47:11;;;;;;;8.13;3.37;;;;;;;8.72;100.00;100360.47;5015198;57;1138885;-75
2023/11/08 16:52:17;;;;;;;3.77;2.80;;;;;;;8.71;100.00;100368.01;5039175;57;1139000;-75
2023/11/08 16:57:23;;;;;;;5.10;2.57;;;;;;;8.67;100.00;100364.78;5027777;57;1138834;-73
2023/11/08 17:02:28;;;;;;;7.57;2.13;;;;;;;8.61;100.00;100366.52;5025766;57;1138896;-73
2023/11/08 17:07:34;;;;;;;4.25;2.12;;;;;;;8.61;100.00;100366.52;5061508;57;1138915;-76
2023/11/08 17:12:40;;;;;;;5.77;2.53;;;;;;;8.62;100.00;100363.41;5039976;57;1139371;-70
2023/11/08 17:17:45;;;;;;;6.37;2.40;;;;;;;8.56;100.00;100363.36;5042517;57;1138778;-69
2023/11/08 17:22:51;;;;;;;7.37;2.60;;;;;;;8.51;100.00;100374.73;5060319;56;1138904;-74
2023/11/08 17:27:57;;;;;;;6.37;3.87;;;;;;;8.41;100.00;100376.31;4958805;57;1138756;-80
2023/11/08 17:33:03;;;;;;;11.03;4.43;;;;;;;8.34;100.00;100379.87;5017054;56;1138827;-78
2023/11/08 17:38:09;;;;;;;6.87;3.83;;;;;;;8.29;100.00;100378.47;4953800;57;1140963;-78
2023/11/08 17:43:14;;;;;;;7.37;2.77;;;;;;;8.22;100.00;100379.39;4941346;58;1138916;-74
2023/11/08 17:48:20;;;;;;;4.42;2.10;;;;;;;8.18;100.00;100384.98;4952746;57;1138887;-76
2023/11/08 17:53:25;;;;;;;5.27;3.07;;;;;;;8.12;100.00;100382.28;4966068;57;1138875;-71
2023/11/08 17:58:31;;;;;;;4.33;3.37;;;;;;;8.08;100.00;100388.27;4956085;57;1138805;-85
2023/11/08 18:03:40;;;;;;;4.92;3.65;;;;;;;8.06;100.00;100390.16;5012159;56;1139058;-80
2023/11/08 18:08:44;;;;;;;10.90;5.43;;;;;;;8.04;100.00;100390.73;4996514;57;1138685;-76
2023/11/08 18:13:51;;;;;;;87.63;27.80;;;;;;;8.00;100.00;100386.62;4936013;58;1141047;-75
2023/11/08 18:18:56;;;;;;;13.80;5.40;;;;;;;7.99;100.00;100394.15;4944093;58;1142914;-84
2023/11/08 18:24:03;;;;;;;68.53;19.20;;;;;;;7.93;100.00;100397.70;4951548;57;1141021;-77
2023/11/08 18:29:08;;;;;;;62.80;15.80;;;;;;;7.86;100.00;100399.05;4988830;57;1143037;-83
2023/11/08 18:34:14;;;;;;;9.50;3.33;;;;;;;7.78;100.00;100402.22;4929377;57;1143362;-76
2023/11/08 18:39:20;;;;;;;6.07;3.87;;;;;;;7.72;100.00;100407.88;4989630;57;1139442;-72
2023/11/08 18:44:25;;;;;;;16.83;5.37;;;;;;;7.67;100.00;100397.66;4989328;57;1138950;-77
2023/11/08 18:49:31;;;;;;;11.12;4.53;;;;;;;7.65;100.00;100405.28;4928815;58;1141083;-71
2023/11/08 18:54:36;;;;;;;93.20;21.20;;;;;;;7.65;100.00;100404.81;4990498;57;1141029;-74
2023/11/08 18:59:42;;;;;;;24.65;6.62;;;;;;;7.67;100.00;100416.08;4990047;57;1143099;-73
2023/11/08 19:04:48;;;;;;;11.70;4.07;;;;;;;7.66;100.00;100417.50;5000508;58;1140776;-77
2023/11/08 19:09:54;;;;;;;6.33;3.37;;;;;;;7.62;100.00;100423.47;5074074;56;1140620;-78
2023/11/08 19:14:59;;;;;;;11.77;4.10;;;;;;;7.58;100.00;100427.23;5021943;56;1138516;-76
2023/11/08 19:20:07;;;;;;;7.60;2.73;;;;;;;7.54;100.00;100423.59;4907130;58;1140610;-78
2023/11/08 19:25:12;;;;;;;4.83;3.10;;;;;;;7.51;100.00;100432.52;5000537;58;1138852;-78
2023/11/08 19:30:19;;;;;;;34.93;11.53;;;;;;;7.52;100.00;100423.69;4985526;57;1138629;-80
2023/11/08 19:35:24;;;;;;;23.23;7.93;;;;;;;7.53;100.00;100427.16;4910569;58;1142947;-76
2023/11/08 19:40:30;;;;;;;16.42;7.58;;;;;;;7.54;100.00;100426.22;5010217;57;1141102;-79
2023/11/08 19:45:36;;;;;;;16.12;7.00;;;;;;;7.53;100.00;100432.42;4990481;57;1140949;-75
2023/11/08 19:50:41;;;;;;;16.57;7.23;;;;;;;7.51;100.00;100430.36;4991476;58;1140823;-82
2023/11/08 19:55:48;;;;;;;26.27;9.50;;;;;;;7.48;100.00;100427.48;5092648;56;1140978;-74
2023/11/08 20:00:53;;;;;;;9.30;6.00;;;;;;;7.45;100.00;100429.47;4990612;58;1141149;-74
2023/11/08 20:05:59;;;;;;;16.73;6.53;;;;;;;7.40;100.00;100429.30;4990803;57;1138766;-82
2023/11/08 20:11:06;;;;;;;11.00;6.47;;;;;;;7.34;100.00;100428.84;4984377;57;1140915;-76
2023/11/08 20:16:12;;;;;;;19.83;8.23;;;;;;;7.28;100.00;100430.58;5006272;57;1141069;-82
2023/11/08 20:21:25;;;;;;;19.20;8.27;;;;;;;7.24;100.00;100431.71;4907195;58;1141036;-78
2023/11/08 20:26:30;;;;;;;16.70;7.47;;;;;;;7.18;100.00;100435.57;5009384;57;1141292;-73
2023/11/08 20:31:38;;;;;;;18.27;7.37;;;;;;;7.16;100.00;100433.54;5009570;57;1141029;-77
2023/11/08 20:36:45;;;;;;;15.27;7.70;;;;;;;7.14;100.00;100431.48;4990922;57;1141038;-74
2023/11/08 20:41:50;;;;;;;17.40;7.13;;;;;;;7.12;100.00;100432.52;4990215;57;1140647;-76
2023/11/08 20:46:56;;;;;;;15.80;8.13;;;;;;;7.08;100.00;100432.33;5010293;57;1140720;-75
2023/11/08 20:52:02;;;;;;;17.70;8.13;;;;;;;7.02;100.00;100427.02;4972708;57;1140855;-77
2023/11/08 20:57:11;;;;;;;16.60;7.60;;;;;;;6.97;100.00;100422.51;4906940;58;1140898;-76
2023/11/08 21:02:16;;;;;;;19.40;8.77;;;;;;;6.92;100.00;100416.69;4927631;58;1140908;-72
2023/11/08 21:07:21;;;;;;;22.57;9.10;;;;;;;6.90;100.00;100423.36;5049433;57;1141042;-75
2023/11/08 21:12:27;;;;;;;15.73;9.07;;;;;;;6.88;100.00;100425.23;4911078;58;1140823;-77
2023/11/08 21:17:33;;;;;;;19.80;7.92;;;;;;;6.87;100.00;100418.80;5011266;56;1140744;-81
2023/11/08 21:22:38;;;;;;;22.48;9.03;;;;;;;6.83;100.00;100414.20;4931442;58;1141275;-80
2023/11/08 21:27:44;;;;;;;28.73;10.23;;;;;;;6.80;100.00;100413.54;4987981;57;1140899;-73
2023/11/08 21:32:50;;;;;;;17.33;8.30;;;;;;;6.77;100.00;100408.47;5010349;57;1143127;-81
2023/11/08 21:37:55;;;;;;;16.30;8.37;;;;;;;6.73;100.00;100401.72;5105943;56;1141082;-74
2023/11/08 21:43:04;;;;;;;20.97;10.50;;;;;;;6.69;100.00;100417.70;5147610;55;1140985;-80
2023/11/08 21:48:10;;;;;;;25.63;11.20;;;;;;;6.68;100.00;100414.70;5099704;56;1143134;-77
2023/11/08 21:53:16;;;;;;;24.23;10.27;;;;;;;6.65;100.00;100417.52;5097670;56;1143173;-76
2023/11/08 21:58:22;;;;;;;18.50;9.03;;;;;;;6.65;100.00;100416.20;5087008;56;1142950;-78
2023/11/08 22:03:28;;;;;;;14.17;6.67;;;;;;;6.62;100.00;100412.91;5138007;56;1140980;-80
2023/11/08 22:08:34;;;;;;;13.60;7.55;;;;;;;6.59;100.00;100413.94;4973712;57;1140965;-78
2023/11/08 22:13:39;;;;;;;22.17;7.92;;;;;;;6.56;100.00;100414.16;5077886;56;1141290;-79
2023/11/08 22:18:45;;;;;;;14.43;6.97;;;;;;;6.53;100.00;100411.72;5077588;56;1141257;-72
2023/11/08 22:23:51;;;;;;;14.20;6.90;;;;;;;6.49;100.00;100407.59;5111249;55;1140889;-76
2023/11/08 22:28:57;;;;;;;18.70;7.03;;;;;;;6.46;100.00;100405.14;5108710;56;1140732;-79
2023/11/08 22:34:02;;;;;;;11.90;6.47;;;;;;;6.43;100.00;100401.39;5089416;56;1140905;-75
2023/11/08 22:39:09;;;;;;;15.88;5.85;;;;;;;6.41;100.00;100399.36;5083159;56;1140923;-72
2023/11/08 22:44:15;;;;;;;13.20;6.60;;;;;;;6.38;100.00;100395.59;5095231;56;1140784;-82
2023/11/08 22:49:20;;;;;;;13.23;6.57;;;;;;;6.37;100.00;100391.28;5079350;56;1141087;-76
2023/11/08 22:54:26;;;;;;;16.30;6.97;;;;;;;6.34;100.00;100391.47;5076102;55;1248618;-70
2023/11/08 22:59:31;;;;;;;11.20;5.67;;;;;;;6.32;100.00;100380.21;5105632;55;1141363;-79
2023/11/08 23:04:37;;;;;;;8.40;5.45;;;;;;;6.28;100.00;100376.92;5079031;55;1141097;-71
2023/11/08 23:09:48;;;;;;;10.37;5.40;;;;;;;6.28;100.00;100382.17;5079156;56;1139094;-76
2023/11/08 23:14:50;;;;;;;10.07;4.90;;;;;;;6.25;100.00;100381.55;5098135;56;1140917;-76
2023/11/08 23:19:55;;;;;;;7.40;4.90;;;;;;;6.22;100.00;100379.95;5079023;56;1141460;-76
2023/11/08 23:25:01;;;;;;;11.90;5.33;;;;;;;6.22;100.00;100384.36;5009860;57;1138908;-78